createdAt,value
2022-10-05T00:02:26.941Z,101738.03
2022-10-05T00:04:56.229Z,101735.44
2022-10-05T00:07:24.974Z,101741.13
2022-10-05T00:09:56.378Z,101745.06
2022-10-05T00:12:24.003Z,101746.81
2022-10-05T00:14:53.508Z,101756.88
2022-10-05T00:17:25.177Z,101756.38
2022-10-05T00:19:53.833Z,101753.56
2022-10-05T00:22:28.915Z,101757.72
2022-10-05T00:24:57.960Z,101761.00
2022-10-05T00:27:26.225Z,101757.47
2022-10-05T00:29:57.734Z,101757.47
2022-10-05T00:32:27.020Z,101761.09
2022-10-05T00:34:54.785Z,101762.75
2022-10-05T00:37:21.957Z,101761.59
2022-10-05T00:39:49.605Z,101748.94
2022-10-05T00:42:16.708Z,101747.25
2022-10-05T00:44:54.545Z,101759.19
2022-10-05T00:47:27.818Z,101750.81
2022-10-05T00:50:06.970Z,101746.00
2022-10-05T00:52:34.037Z,101752.69
2022-10-05T00:55:20.179Z,101747.03
2022-10-05T00:57:47.502Z,101748.88
2022-10-05T01:00:17.392Z,101748.25
2022-10-05T01:02:56.258Z,101749.56
2022-10-05T01:05:23.404Z,101754.09
2022-10-05T01:08:04.223Z,101746.88
2022-10-05T01:10:42.832Z,101755.47
2022-10-05T01:13:15.787Z,101750.75
2022-10-05T01:15:46.175Z,101753.16
2022-10-05T01:18:27.768Z,101744.13
2022-10-05T01:20:59.740Z,101735.31
2022-10-05T01:23:40.299Z,101745.81
2022-10-05T01:26:33.941Z,101746.63
2022-10-05T01:29:13.338Z,101744.94
2022-10-05T01:31:49.753Z,101739.44
2022-10-05T01:34:19.886Z,101748.78
2022-10-05T01:36:56.793Z,101745.31
2022-10-05T01:39:30.016Z,101739.81
2022-10-05T01:41:57.225Z,101745.06
2022-10-05T01:44:29.549Z,101750.31
2022-10-05T01:47:03.251Z,101754.78
2022-10-05T01:49:33.815Z,101743.88
2022-10-05T01:52:13.221Z,101749.72
2022-10-05T01:55:01.937Z,101737.97
2022-10-05T01:57:29.017Z,101737.16
2022-10-05T02:00:07.748Z,101738.22
2022-10-05T02:02:56.057Z,101745.50
2022-10-05T02:05:26.445Z,101746.22
2022-10-05T02:07:57.566Z,101747.09
2022-10-05T02:10:32.817Z,101749.88
2022-10-05T02:13:20.373Z,101752.66
2022-10-05T02:16:11.207Z,101758.16
2022-10-05T02:18:59.105Z,101758.25
2022-10-05T02:21:26.803Z,101749.28
2022-10-05T02:23:57.134Z,101749.16
2022-10-05T02:26:24.962Z,101742.81
2022-10-05T02:28:56.351Z,101739.25
2022-10-05T02:31:36.189Z,101737.34
2022-10-05T02:34:26.410Z,101730.22
2022-10-05T02:37:06.799Z,101726.72
2022-10-05T02:39:57.609Z,101725.84
2022-10-05T02:42:30.548Z,101725.06
2022-10-05T02:44:58.404Z,101719.16
2022-10-05T02:47:30.232Z,101728.56
2022-10-05T02:50:02.721Z,101728.31
2022-10-05T02:52:38.248Z,101729.28
2022-10-05T02:55:17.686Z,101730.94
2022-10-05T02:58:04.474Z,101727.59
2022-10-05T03:00:36.286Z,101724.25
2022-10-05T03:03:10.469Z,101729.63
2022-10-05T03:05:40.580Z,101726.72
2022-10-05T03:08:37.715Z,101725.94
2022-10-05T03:11:15.247Z,101720.47
2022-10-05T03:14:02.860Z,101727.06
2022-10-05T03:16:34.398Z,101724.91
2022-10-05T03:19:04.749Z,101725.44
2022-10-05T03:21:46.203Z,101726.03
2022-10-05T03:24:34.722Z,101727.72
2022-10-05T03:27:07.978Z,101728.47
2022-10-05T03:29:50.251Z,101728.06
2022-10-05T03:32:20.550Z,101725.19
2022-10-05T03:34:53.077Z,101729.13
2022-10-05T03:37:20.685Z,101722.81
2022-10-05T03:39:54.289Z,101735.34
2022-10-05T03:42:32.126Z,101735.94
2022-10-05T03:45:18.009Z,101746.09
2022-10-05T03:48:03.804Z,101739.47
2022-10-05T03:50:36.381Z,101746.00
2022-10-05T03:53:06.477Z,101741.78
2022-10-05T03:55:33.969Z,101741.22
2022-10-05T03:58:06.642Z,101743.81
2022-10-05T04:00:35.376Z,101745.72
2022-10-05T04:03:20.449Z,101744.63
2022-10-05T04:05:50.564Z,101743.09
2022-10-05T04:08:30.869Z,101744.78
2022-10-05T04:11:01.449Z,101744.78
2022-10-05T04:13:28.533Z,101743.69
2022-10-05T04:15:58.843Z,101745.28
2022-10-05T04:18:29.180Z,101744.97
2022-10-05T04:20:58.923Z,101743.31
2022-10-05T04:23:41.855Z,101745.06
2022-10-05T04:26:15.573Z,101749.50
2022-10-05T04:28:52.250Z,101749.22
2022-10-05T04:31:34.798Z,101748.72
2022-10-05T04:34:14.210Z,101743.81
2022-10-05T04:36:46.040Z,101744.22
2022-10-05T04:39:22.348Z,101747.25
2022-10-05T04:42:02.925Z,101746.50
2022-10-05T04:44:33.940Z,101744.78
2022-10-05T04:47:12.769Z,101744.69
2022-10-05T04:49:55.736Z,101753.25
2022-10-05T04:52:40.318Z,101742.81
2022-10-05T04:55:23.064Z,101743.28
2022-10-05T04:57:56.434Z,101744.31
2022-10-05T05:00:25.269Z,101746.88
2022-10-05T05:03:21.375Z,101747.75
2022-10-05T05:06:19.538Z,101747.31
2022-10-05T05:09:09.504Z,101753.13
2022-10-05T05:11:43.585Z,101754.22
2022-10-05T05:14:13.531Z,101757.47
2022-10-05T05:16:42.593Z,101759.22
2022-10-05T05:19:23.027Z,101760.91
2022-10-05T05:22:13.513Z,101763.31
2022-10-05T05:24:52.983Z,101764.88
2022-10-05T05:27:23.397Z,101771.13
2022-10-05T05:29:53.605Z,101772.91
2022-10-05T05:32:24.097Z,101774.78
2022-10-05T05:35:06.611Z,101776.66
2022-10-05T05:37:37.998Z,101779.41
2022-10-05T05:40:24.015Z,101782.97
2022-10-05T05:42:54.876Z,101792.00
2022-10-05T05:45:33.092Z,101785.47
2022-10-05T05:48:02.950Z,101797.25
2022-10-05T05:50:32.286Z,101791.47
2022-10-05T05:53:15.298Z,101793.41
2022-10-05T05:55:46.474Z,101793.84
2022-10-05T05:58:17.411Z,101802.25
2022-10-05T06:00:50.896Z,101801.97
2022-10-05T06:03:24.872Z,101801.69
2022-10-05T06:05:55.240Z,101798.72
2022-10-05T06:08:41.273Z,101789.78
2022-10-05T06:11:41.063Z,101792.41
2022-10-05T06:14:14.881Z,101803.06
2022-10-05T06:16:47.322Z,101807.16
2022-10-05T06:19:17.628Z,101810.44
2022-10-05T06:22:03.269Z,101819.47
2022-10-05T06:24:38.669Z,101819.22
2022-10-05T06:27:18.062Z,101822.25
2022-10-05T06:29:45.218Z,101825.91
2022-10-05T06:32:27.657Z,101828.53
2022-10-05T06:35:01.644Z,101827.88
2022-10-05T06:37:39.768Z,101830.63
2022-10-05T06:40:14.502Z,101828.88
2022-10-05T06:42:41.670Z,101833.16
2022-10-05T06:45:38.235Z,101835.00
2022-10-05T06:48:17.473Z,101836.66
2022-10-05T06:51:26.619Z,101836.97
2022-10-05T06:54:20.003Z,101829.78
2022-10-05T06:56:56.288Z,101831.50
2022-10-05T06:59:42.289Z,101831.56
2022-10-05T07:02:09.528Z,101841.44
2022-10-05T07:04:56.100Z,101845.97
2022-10-05T07:07:29.506Z,101844.81
2022-10-05T07:10:14.840Z,101842.06
2022-10-05T07:13:02.791Z,101841.81
2022-10-05T07:15:48.958Z,101849.69
2022-10-05T07:18:21.891Z,101839.94
2022-10-05T07:20:50.876Z,101848.97
2022-10-05T07:23:19.795Z,101849.31
2022-10-05T07:26:03.048Z,101846.56
2022-10-05T07:28:33.553Z,101850.56
2022-10-05T07:31:07.178Z,101849.84
2022-10-05T07:33:40.767Z,101850.84
2022-10-05T07:36:32.803Z,101847.66
2022-10-05T07:39:03.192Z,101850.09
2022-10-05T07:41:37.382Z,101857.06
2022-10-05T07:44:13.079Z,101866.38
2022-10-05T07:46:51.903Z,101863.75
2022-10-05T07:49:26.737Z,101861.91
2022-10-05T07:52:10.280Z,101858.97
2022-10-05T07:54:47.544Z,101854.00
2022-10-05T07:57:21.003Z,101860.19
2022-10-05T07:59:56.762Z,101858.22
2022-10-05T08:02:36.301Z,101856.56
2022-10-05T08:05:37.141Z,101860.44
2022-10-05T08:08:18.188Z,101857.47
2022-10-05T08:10:46.987Z,101854.50
2022-10-05T08:13:14.409Z,101859.56
2022-10-05T08:15:43.305Z,101858.47
2022-10-05T08:18:30.634Z,101856.25
2022-10-05T08:20:58.584Z,101856.94
2022-10-05T08:23:31.906Z,101862.81
2022-10-05T08:26:25.416Z,101854.72
2022-10-05T08:29:13.802Z,101858.59
2022-10-05T08:31:43.017Z,101862.97
2022-10-05T08:34:21.041Z,101862.63
2022-10-05T08:36:51.611Z,101864.69
2022-10-05T08:39:21.498Z,101868.94
2022-10-05T08:41:59.824Z,101874.09
2022-10-05T08:44:45.337Z,101869.34
2022-10-05T08:47:21.554Z,101874.53
2022-10-05T08:50:07.729Z,101876.38
2022-10-05T08:52:41.508Z,101871.78
2022-10-05T08:55:31.070Z,101882.78
2022-10-05T08:58:07.985Z,101884.13
2022-10-05T09:00:53.928Z,101883.31
2022-10-05T09:03:52.917Z,101891.72
2022-10-05T09:06:45.359Z,101897.25
2022-10-05T09:09:18.702Z,101887.69
2022-10-05T09:11:55.458Z,101901.31
2022-10-05T09:14:52.650Z,101892.03
2022-10-05T09:17:50.043Z,101895.53
2022-10-05T09:20:22.866Z,101890.66
2022-10-05T09:23:08.531Z,101896.94
2022-10-05T09:25:46.938Z,101898.91
2022-10-05T09:28:20.241Z,101905.13
2022-10-05T09:30:50.546Z,101891.38
2022-10-05T09:33:30.036Z,101890.50
2022-10-05T09:36:15.984Z,101895.47
2022-10-05T09:39:01.959Z,101902.63
2022-10-05T09:41:44.691Z,101902.41
2022-10-05T09:44:18.853Z,101906.06
2022-10-05T09:46:52.304Z,101904.38
2022-10-05T09:49:19.452Z,101901.81
2022-10-05T09:51:46.827Z,101898.75
2022-10-05T09:54:17.235Z,101899.91
2022-10-05T09:56:57.168Z,101898.69
2022-10-05T09:59:39.626Z,101893.06
2022-10-05T10:02:06.923Z,101886.81
2022-10-05T10:04:34.361Z,101896.69
2022-10-05T10:07:17.184Z,101890.25
2022-10-05T10:09:56.640Z,101889.31
2022-10-05T10:12:26.744Z,101892.00
2022-10-05T10:15:01.929Z,101887.78
2022-10-05T10:17:42.431Z,101888.19
2022-10-05T10:20:26.121Z,101888.13
2022-10-05T10:23:12.020Z,101891.94
2022-10-05T10:25:48.444Z,101891.13
2022-10-05T10:28:28.178Z,101886.19
2022-10-05T10:31:14.499Z,101892.75
2022-10-05T10:33:47.917Z,101890.34
2022-10-05T10:36:34.116Z,101894.31
2022-10-05T10:39:17.622Z,101890.41
2022-10-05T10:41:54.089Z,101886.56
2022-10-05T10:44:33.434Z,101899.19
2022-10-05T10:47:13.316Z,101896.69
2022-10-05T10:49:56.141Z,101898.44
2022-10-05T10:52:42.105Z,101891.06
2022-10-05T10:55:27.643Z,101892.81
2022-10-05T10:57:54.785Z,101888.38
2022-10-05T11:00:27.304Z,101894.00
2022-10-05T11:03:13.417Z,101902.75
2022-10-05T11:05:55.174Z,101900.84
2022-10-05T11:08:37.410Z,101896.06
2022-10-05T11:11:23.447Z,101892.16
2022-10-05T11:14:10.394Z,101885.78
2022-10-05T11:16:50.091Z,101886.56
2022-10-05T11:19:40.452Z,101882.47
2022-10-05T11:22:33.510Z,101879.47
2022-10-05T11:25:19.869Z,101882.13
2022-10-05T11:27:59.879Z,101882.03
2022-10-05T11:30:36.394Z,101877.13
2022-10-05T11:33:11.319Z,101878.31
2022-10-05T11:35:38.478Z,101881.00
2022-10-05T11:38:08.923Z,101880.31
2022-10-05T11:40:56.108Z,101875.91
2022-10-05T11:43:26.217Z,101869.78
2022-10-05T11:46:12.449Z,101862.06
2022-10-05T11:48:42.883Z,101863.81
2022-10-05T11:51:27.769Z,101855.88
2022-10-05T11:53:57.618Z,101860.31
2022-10-05T11:56:50.781Z,101857.63
2022-10-05T11:59:34.930Z,101854.91
2022-10-05T12:02:20.557Z,101859.53
2022-10-05T12:04:50.969Z,101853.28
2022-10-05T12:07:18.160Z,101851.34
2022-10-05T12:10:07.315Z,101849.13
2022-10-05T12:12:44.694Z,101850.53
2022-10-05T12:15:18.988Z,101841.28
2022-10-05T12:18:08.270Z,101841.28
2022-10-05T12:20:40.754Z,101855.38
2022-10-05T12:23:15.084Z,101842.84
2022-10-05T12:25:45.598Z,101842.84
2022-10-05T12:28:16.151Z,101845.50
2022-10-05T12:31:13.006Z,101842.16
2022-10-05T12:33:40.262Z,101834.72
2022-10-05T12:36:15.459Z,101840.50
2022-10-05T12:38:45.716Z,101837.38
2022-10-05T12:41:16.002Z,101832.44
2022-10-05T12:43:43.203Z,101830.44
2022-10-05T12:46:19.732Z,101824.25
2022-10-05T12:48:56.231Z,101828.38
2022-10-05T12:51:35.731Z,101827.19
2022-10-05T12:54:02.950Z,101826.88
2022-10-05T12:56:37.579Z,101829.31
2022-10-05T12:59:14.435Z,101828.44
2022-10-05T13:01:43.784Z,101832.28
2022-10-05T13:04:31.211Z,101825.81
2022-10-05T13:07:07.580Z,101822.94
2022-10-05T13:09:34.812Z,101828.06
2022-10-05T13:12:13.105Z,101820.56
2022-10-05T13:14:53.735Z,101823.81
2022-10-05T13:17:28.729Z,101820.88
2022-10-05T13:20:03.708Z,101824.13
2022-10-05T13:22:39.695Z,101817.59
2022-10-05T13:25:27.151Z,101813.13
2022-10-05T13:27:59.895Z,101823.59
2022-10-05T13:30:27.502Z,101814.41
2022-10-05T13:33:04.448Z,101811.88
2022-10-05T13:35:31.586Z,101821.75
2022-10-05T13:38:17.523Z,101817.13
2022-10-05T13:41:08.467Z,101827.78
2022-10-05T13:43:55.141Z,101821.41
2022-10-05T13:46:22.271Z,101819.66
2022-10-05T13:48:55.729Z,101809.56
2022-10-05T13:51:46.037Z,101817.72
2022-10-05T13:54:36.346Z,101811.00
2022-10-05T13:57:17.120Z,101813.38
2022-10-05T13:59:50.446Z,101808.91
2022-10-05T14:02:20.799Z,101815.66
2022-10-05T14:04:49.155Z,101808.22
2022-10-05T14:07:22.345Z,101821.19
2022-10-05T14:09:52.489Z,101815.88
2022-10-05T14:12:21.426Z,101814.28
2022-10-05T14:14:52.759Z,101806.91
2022-10-05T14:17:39.885Z,101806.91
2022-10-05T14:20:36.740Z,101808.50
2022-10-05T14:23:11.267Z,101813.28
2022-10-05T14:25:53.741Z,101806.19
2022-10-05T14:28:34.593Z,101800.53
2022-10-05T14:31:27.242Z,101794.69
2022-10-05T14:33:54.815Z,101793.34
2022-10-05T14:36:40.281Z,101805.53
2022-10-05T14:39:12.266Z,101798.78
2022-10-05T14:41:48.015Z,101802.63
2022-10-05T14:44:15.568Z,101795.28
2022-10-05T14:46:54.628Z,101794.25
2022-10-05T14:49:36.538Z,101797.84
2022-10-05T14:52:23.167Z,101791.47
2022-10-05T14:55:06.015Z,101790.31
2022-10-05T14:57:34.119Z,101781.97
2022-10-05T15:00:04.119Z,101785.44
2022-10-05T15:02:37.600Z,101782.00
2022-10-05T15:05:15.246Z,101772.50
2022-10-05T15:07:43.968Z,101778.88
2022-10-05T15:10:27.010Z,101781.50
2022-10-05T15:12:55.478Z,101781.22
2022-10-05T15:15:41.250Z,101778.78
2022-10-05T15:18:31.650Z,101781.63
2022-10-05T15:21:09.037Z,101776.06
2022-10-05T15:23:42.781Z,101770.66
2022-10-05T15:26:10.179Z,101770.09
2022-10-05T15:28:55.811Z,101769.94
2022-10-05T15:31:22.936Z,101772.81
2022-10-05T15:33:59.328Z,101772.22
2022-10-05T15:36:45.296Z,101767.41
2022-10-05T15:39:25.335Z,101772.72
2022-10-05T15:41:55.440Z,101768.59
2022-10-05T15:44:22.496Z,101770.59
2022-10-05T15:46:57.695Z,101774.44
2022-10-05T15:49:34.374Z,101770.88
2022-10-05T15:52:23.353Z,101771.66
2022-10-05T15:55:09.284Z,101771.94
2022-10-05T15:57:41.288Z,101779.88
2022-10-05T16:00:12.862Z,101785.66
2022-10-05T16:02:43.091Z,101789.34
2022-10-05T16:05:42.641Z,101784.41
2022-10-05T16:08:35.130Z,101791.09
2022-10-05T16:11:05.257Z,101792.28
2022-10-05T16:13:39.870Z,101794.03
2022-10-05T16:16:08.056Z,101792.38
2022-10-05T16:19:11.317Z,101788.72
2022-10-05T16:21:47.569Z,101793.91
2022-10-05T16:24:26.042Z,101798.56
2022-10-05T16:26:53.204Z,101790.94
2022-10-05T16:29:26.298Z,101796.59
2022-10-05T16:32:05.792Z,101799.44
2022-10-05T16:34:41.852Z,101796.81
2022-10-05T16:37:28.189Z,101798.84
2022-10-05T16:39:58.523Z,101800.81
2022-10-05T16:42:34.973Z,101800.75
2022-10-05T16:45:06.826Z,101802.91
2022-10-05T16:47:47.489Z,101800.38
2022-10-05T16:50:17.455Z,101804.94
2022-10-05T16:52:47.129Z,101816.66
2022-10-05T16:55:19.993Z,101814.13
2022-10-05T16:57:51.442Z,101808.88
2022-10-05T17:00:30.761Z,101819.78
2022-10-05T17:03:16.668Z,101818.03
2022-10-05T17:05:55.148Z,101825.03
2022-10-05T17:08:34.224Z,101824.16
2022-10-05T17:11:06.437Z,101820.50
2022-10-05T17:13:48.906Z,101821.19
2022-10-05T17:16:18.985Z,101826.78
2022-10-05T17:19:04.633Z,101824.38
2022-10-05T17:21:38.386Z,101827.31
2022-10-05T17:24:11.669Z,101832.97
2022-10-05T17:26:57.505Z,101829.13
2022-10-05T17:29:28.020Z,101834.94
2022-10-05T17:32:00.029Z,101834.13
2022-10-05T17:34:34.312Z,101836.84
2022-10-05T17:37:20.314Z,101832.00
2022-10-05T17:39:49.379Z,101838.28
2022-10-05T17:42:31.658Z,101835.09
2022-10-05T17:45:13.773Z,101833.44
2022-10-05T17:48:01.279Z,101831.81
2022-10-05T17:54:03.239Z,101840.50
2022-10-05T17:56:55.924Z,101835.47
2022-10-05T17:59:35.376Z,101841.13
2022-10-05T18:02:21.721Z,101832.84
2022-10-05T18:05:12.424Z,101833.13
2022-10-05T18:07:40.377Z,101847.63
2022-10-05T18:10:15.387Z,101843.63
2022-10-05T18:12:50.708Z,101843.91
2022-10-05T18:15:24.105Z,101848.75
2022-10-05T18:17:54.682Z,101842.69
2022-10-05T18:20:25.513Z,101841.91
2022-10-05T18:22:54.300Z,101840.78
2022-10-05T18:25:38.256Z,101840.16
2022-10-05T18:28:08.406Z,101844.31
2022-10-05T18:30:44.869Z,101841.19
2022-10-05T18:33:29.862Z,101853.19
2022-10-05T18:36:03.335Z,101847.19
2022-10-05T18:38:41.028Z,101846.53
2022-10-05T18:41:09.077Z,101854.75
2022-10-05T18:43:36.252Z,101845.94
2022-10-05T18:46:09.585Z,101852.38
2022-10-05T18:48:57.682Z,101855.25
2022-10-05T18:51:29.946Z,101849.84
2022-10-05T18:54:12.630Z,101845.47
2022-10-05T18:56:49.513Z,101847.00
2022-10-05T18:59:39.660Z,101846.22
2022-10-05T19:02:11.229Z,101850.03
2022-10-05T19:04:47.307Z,101845.91
2022-10-05T19:07:17.275Z,101850.72
2022-10-05T19:10:00.910Z,101855.53
2022-10-05T19:12:41.353Z,101846.09
2022-10-05T19:15:21.060Z,101850.34
2022-10-05T19:17:58.671Z,101847.22
2022-10-05T19:20:25.805Z,101852.72
2022-10-05T19:22:52.879Z,101851.84
2022-10-05T19:25:29.339Z,101847.59
2022-10-05T19:28:15.883Z,101854.13
2022-10-05T19:31:01.309Z,101854.44
2022-10-05T19:33:28.750Z,101853.31
2022-10-05T19:35:58.979Z,101847.91
2022-10-05T19:38:40.515Z,101849.75
2022-10-05T19:41:14.437Z,101850.75
2022-10-05T19:44:02.595Z,101853.56
2022-10-05T19:46:30.986Z,101859.28
2022-10-05T19:49:00.164Z,101866.59
2022-10-05T19:51:29.983Z,101864.84
2022-10-05T19:54:00.446Z,101865.94
2022-10-05T19:56:32.686Z,101870.63
2022-10-05T19:59:10.905Z,101869.81
2022-10-05T20:01:42.268Z,101869.81
2022-10-05T20:04:10.310Z,101865.00
2022-10-05T20:06:40.143Z,101866.88
2022-10-05T20:09:21.506Z,101879.41
2022-10-05T20:11:50.177Z,101876.66
2022-10-05T20:14:18.870Z,101884.03
2022-10-05T20:17:04.885Z,101877.09
2022-10-05T20:19:51.436Z,101877.16
2022-10-05T20:22:36.428Z,101876.28
2022-10-05T20:25:10.759Z,101884.31
2022-10-05T20:27:51.542Z,101876.28
2022-10-05T20:30:20.209Z,101885.53
2022-10-05T20:33:01.443Z,101882.84
2022-10-05T20:35:32.403Z,101881.03
2022-10-05T20:38:00.083Z,101885.63
2022-10-05T20:40:29.183Z,101887.66
2022-10-05T20:42:57.360Z,101884.03
2022-10-05T20:45:24.782Z,101891.34
2022-10-05T20:47:52.439Z,101887.81
2022-10-05T20:50:22.298Z,101894.28
2022-10-05T20:52:49.814Z,101895.34
2022-10-05T20:55:17.092Z,101900.53
2022-10-05T20:57:46.166Z,101900.47
2022-10-05T21:00:13.871Z,101905.78
2022-10-05T21:02:41.073Z,101904.84
2022-10-05T21:05:08.674Z,101910.50
2022-10-05T21:07:37.001Z,101904.25
2022-10-05T21:10:04.416Z,101903.50
2022-10-05T21:12:34.099Z,101898.16
2022-10-05T21:15:04.775Z,101898.22
2022-10-05T21:17:32.979Z,101899.19
2022-10-05T21:20:00.152Z,101902.00
2022-10-05T21:22:27.374Z,101902.13
2022-10-05T21:24:55.815Z,101895.88
2022-10-05T21:27:23.951Z,101903.94
2022-10-05T21:29:51.677Z,101896.97
2022-10-05T21:32:18.844Z,101892.56
2022-10-05T21:34:46.282Z,101893.50
2022-10-05T21:37:15.445Z,101891.91
2022-10-05T21:39:44.998Z,101899.28
2022-10-05T21:42:12.261Z,101896.59
2022-10-05T21:44:40.198Z,101893.84
2022-10-05T21:47:25.899Z,101893.91
2022-10-05T21:49:53.105Z,101888.66
2022-10-05T21:52:20.591Z,101891.25
2022-10-05T21:54:47.941Z,101887.91
2022-10-05T21:57:15.441Z,101881.78
2022-10-05T21:59:43.104Z,101881.72
2022-10-05T22:02:10.285Z,101882.63
2022-10-05T22:04:37.527Z,101881.84
2022-10-05T22:07:18.595Z,101883.88
2022-10-05T22:09:49.440Z,101877.78
2022-10-05T22:12:17.113Z,101882.06
2022-10-05T22:14:44.338Z,101880.97
2022-10-05T22:17:20.703Z,101880.84
2022-10-05T22:19:47.873Z,101875.47
2022-10-05T22:22:15.050Z,101875.47
2022-10-05T22:24:42.186Z,101876.41
2022-10-05T22:27:09.578Z,101871.16
2022-10-05T22:29:36.887Z,101873.97
2022-10-05T22:32:04.215Z,101874.91
2022-10-05T22:34:31.391Z,101873.22
2022-10-05T22:36:58.943Z,101867.97
2022-10-05T22:39:26.123Z,101865.34
2022-10-05T22:41:53.317Z,101861.91
2022-10-05T22:44:20.765Z,101856.72
2022-10-05T22:46:48.128Z,101852.25
2022-10-05T22:49:15.292Z,101853.16
2022-10-05T22:51:42.400Z,101848.91
2022-10-05T22:54:09.573Z,101849.78
2022-10-05T22:56:36.732Z,101852.31
2022-10-05T22:59:03.938Z,101844.28
2022-10-05T23:01:31.177Z,101845.28
2022-10-05T23:03:58.540Z,101845.09
2022-10-05T23:06:26.677Z,101850.66
2022-10-05T23:08:54.099Z,101849.00
2022-10-05T23:11:23.692Z,101843.06
2022-10-05T23:13:52.234Z,101839.53
2022-10-05T23:16:20.540Z,101847.34
2022-10-05T23:18:48.867Z,101847.19
2022-10-05T23:21:16.654Z,101835.66
2022-10-05T23:23:47.385Z,101840.38
2022-10-05T23:26:15.272Z,101843.22
2022-10-05T23:28:46.589Z,101837.03
2022-10-05T23:31:14.925Z,101840.78
2022-10-05T23:33:42.143Z,101841.56
2022-10-05T23:36:12.008Z,101842.28
2022-10-05T23:38:39.239Z,101849.44
2022-10-05T23:41:07.576Z,101841.28
2022-10-05T23:43:35.144Z,101843.06
2022-10-05T23:46:05.586Z,101843.09
2022-10-05T23:48:33.108Z,101843.22
2022-10-05T23:51:00.729Z,101842.41
2022-10-05T23:53:27.855Z,101847.63
2022-10-05T23:55:55.550Z,101843.06
2022-10-05T23:58:22.876Z,101837.91
